sensor_id;sensor_type;location;lat;lon;timestamp;pressure;altitude;pressure_sealevel;temperature;humidity
72961;BME280;61141;46.204;19.774;2024-03-02T00:01:59;99758.06;;;10.79;90.61
72961;BME280;61141;46.204;19.774;2024-03-02T00:05:02;99760.41;;;10.80;90.76
72961;BME280;61141;46.204;19.774;2024-03-02T00:08:06;99761.19;;;10.81;90.88
72961;BME280;61141;46.204;19.774;2024-03-02T00:11:11;99774.09;;;10.80;90.71
72961;BME280;61141;46.204;19.774;2024-03-02T00:14:16;99775.69;;;10.81;91.23
72961;BME280;61141;46.204;19.774;2024-03-02T00:17:24;99768.66;;;10.84;90.44
72961;BME280;61141;46.204;19.774;2024-03-02T00:20:28;99774.53;;;10.86;90.40
72961;BME280;61141;46.204;19.774;2024-03-02T00:23:33;99778.03;;;10.83;90.62
72961;BME280;61141;46.204;19.774;2024-03-02T00:26:37;99781.50;;;10.73;90.45
72961;BME280;61141;46.204;19.774;2024-03-02T00:29:41;99780.41;;;10.84;90.49
72961;BME280;61141;46.204;19.774;2024-03-02T00:32:45;99783.94;;;10.88;90.59
72961;BME280;61141;46.204;19.774;2024-03-02T00:35:49;99781.59;;;10.87;90.46
72961;BME280;61141;46.204;19.774;2024-03-02T00:38:53;99767.06;;;10.83;90.70
72961;BME280;61141;46.204;19.774;2024-03-02T00:41:56;99772.91;;;10.71;90.74
72961;BME280;61141;46.204;19.774;2024-03-02T00:44:59;99772.56;;;10.79;90.71
72961;BME280;61141;46.204;19.774;2024-03-02T00:48:02;99781.50;;;10.66;91.13
72961;BME280;61141;46.204;19.774;2024-03-02T00:51:07;99766.63;;;10.70;91.70
72961;BME280;61141;46.204;19.774;2024-03-02T00:54:10;99765.88;;;10.73;91.40
72961;BME280;61141;46.204;19.774;2024-03-02T00:57:13;99769.38;;;10.70;91.60
72961;BME280;61141;46.204;19.774;2024-03-02T01:00:18;99765.88;;;10.80;91.32
72961;BME280;61141;46.204;19.774;2024-03-02T01:03:20;99763.53;;;10.75;91.27
72961;BME280;61141;46.204;19.774;2024-03-02T01:06:24;99775.28;;;10.79;91.47
72961;BME280;61141;46.204;19.774;2024-03-02T01:09:26;99779.19;;;10.78;91.39
72961;BME280;61141;46.204;19.774;2024-03-02T01:12:29;99777.28;;;10.82;91.22
72961;BME280;61141;46.204;19.774;2024-03-02T01:15:33;99760.38;;;10.73;91.26
72961;BME280;61141;46.204;19.774;2024-03-02T01:18:36;99770.59;;;10.80;91.46
72961;BME280;61141;46.204;19.774;2024-03-02T01:21:39;99770.56;;;10.76;91.48
72961;BME280;61141;46.204;19.774;2024-03-02T01:24:42;99776.84;;;10.80;92.04
72961;BME280;61141;46.204;19.774;2024-03-02T01:27:45;99780.78;;;10.79;92.16
72961;BME280;61141;46.204;19.774;2024-03-02T01:30:52;99773.75;;;10.85;92.78
72961;BME280;61141;46.204;19.774;2024-03-02T01:33:54;99770.16;;;10.71;94.09
72961;BME280;61141;46.204;19.774;2024-03-02T01:36:57;99743.88;;;10.59;94.78
72961;BME280;61141;46.204;19.774;2024-03-02T01:40:00;99764.28;;;10.72;95.29
72961;BME280;61141;46.204;19.774;2024-03-02T01:43:04;99756.41;;;10.60;96.37
72961;BME280;61141;46.204;19.774;2024-03-02T01:46:07;99768.94;;;10.57;96.97
72961;BME280;61141;46.204;19.774;2024-03-02T01:49:10;99768.09;;;10.53;97.88
72961;BME280;61141;46.204;19.774;2024-03-02T01:52:12;99766.56;;;10.56;98.05
72961;BME280;61141;46.204;19.774;2024-03-02T01:55:15;99762.59;;;10.50;98.67
72961;BME280;61141;46.204;19.774;2024-03-02T01:58:18;99770.81;;;10.50;98.87
72961;BME280;61141;46.204;19.774;2024-03-02T02:01:21;99764.53;;;10.49;100.00
72961;BME280;61141;46.204;19.774;2024-03-02T02:04:24;99763.41;;;10.54;100.00
72961;BME280;61141;46.204;19.774;2024-03-02T02:07:30;99768.91;;;10.54;100.00
72961;BME280;61141;46.204;19.774;2024-03-02T02:10:33;99764.13;;;10.40;100.00
72961;BME280;61141;46.204;19.774;2024-03-02T02:13:36;99749.97;;;10.31;100.00
72961;BME280;61141;46.204;19.774;2024-03-02T02:16:39;99750.00;;;10.35;100.00
72961;BME280;61141;46.204;19.774;2024-03-02T02:19:42;99756.97;;;10.25;100.00
72961;BME280;61141;46.204;19.774;2024-03-02T02:23:02;99764.81;;;10.30;100.00
72961;BME280;61141;46.204;19.774;2024-03-02T02:26:05;99753.03;;;10.19;100.00
72961;BME280;61141;46.204;19.774;2024-03-02T02:29:08;99757.34;;;10.20;100.00
72961;BME280;61141;46.204;19.774;2024-03-02T02:32:11;99750.53;;;10.03;100.00
72961;BME280;61141;46.204;19.774;2024-03-02T02:35:14;99765.34;;;9.95;100.00
72961;BME280;61141;46.204;19.774;2024-03-02T02:38:16;99761.78;;;9.91;100.00
72961;BME280;61141;46.204;19.774;2024-03-02T02:41:19;99758.72;;;9.96;100.00
72961;BME280;61141;46.204;19.774;2024-03-02T02:44:22;99740.28;;;9.90;100.00
72961;BME280;61141;46.204;19.774;2024-03-02T02:47:25;99757.97;;;9.99;100.00
72961;BME280;61141;46.204;19.774;2024-03-02T02:50:28;99750.88;;;9.95;100.00
72961;BME280;61141;46.204;19.774;2024-03-02T02:53:31;99755.53;;;9.94;100.00
72961;BME280;61141;46.204;19.774;2024-03-02T02:56:34;99750.44;;;9.89;100.00
72961;BME280;61141;46.204;19.774;2024-03-02T02:59:37;99738.62;;;9.78;100.00
72961;BME280;61141;46.204;19.774;2024-03-02T03:02:41;99757.00;;;9.81;100.00
72961;BME280;61141;46.204;19.774;2024-03-02T03:05:44;99755.84;;;9.82;100.00
72961;BME280;61141;46.204;19.774;2024-03-02T03:08:47;99749.97;;;9.80;100.00
72961;BME280;61141;46.204;19.774;2024-03-02T03:11:50;99751.91;;;9.76;100.00
72961;BME280;61141;46.204;19.774;2024-03-02T03:14:52;99756.63;;;9.79;100.00
72961;BME280;61141;46.204;19.774;2024-03-02T03:17:55;99745.28;;;9.77;100.00
72961;BME280;61141;46.204;19.774;2024-03-02T03:20:58;99763.59;;;9.73;100.00
72961;BME280;61141;46.204;19.774;2024-03-02T03:24:01;99762.84;;;9.76;100.00
72961;BME280;61141;46.204;19.774;2024-03-02T03:27:04;99739.28;;;9.65;100.00
72961;BME280;61141;46.204;19.774;2024-03-02T03:30:07;99751.06;;;9.69;100.00
72961;BME280;61141;46.204;19.774;2024-03-02T03:33:10;99753.84;;;9.76;100.00
72961;BME280;61141;46.204;19.774;2024-03-02T03:36:13;99751.16;;;9.79;100.00
72961;BME280;61141;46.204;19.774;2024-03-02T03:39:15;99757.00;;;9.81;100.00
72961;BME280;61141;46.204;19.774;2024-03-02T03:42:18;99748.81;;;9.81;100.00
72961;BME280;61141;46.204;19.774;2024-03-02T03:45:21;99747.94;;;9.70;100.00
72961;BME280;61141;46.204;19.774;2024-03-02T03:48:24;99754.59;;;9.69;100.00
72961;BME280;61141;46.204;19.774;2024-03-02T03:51:33;99749.50;;;9.71;100.00
72961;BME280;61141;46.204;19.774;2024-03-02T03:54:36;99752.28;;;9.75;100.00
72961;BME280;61141;46.204;19.774;2024-03-02T03:57:40;99736.94;;;9.67;100.00
72961;BME280;61141;46.204;19.774;2024-03-02T04:00:43;99757.75;;;9.78;100.00
72961;BME280;61141;46.204;19.774;2024-03-02T04:03:46;99756.56;;;9.76;100.00
72961;BME280;61141;46.204;19.774;2024-03-02T04:06:49;99766.38;;;9.77;100.00
72961;BME280;61141;46.204;19.774;2024-03-02T04:09:52;99759.97;;;9.62;100.00
72961;BME280;61141;46.204;19.774;2024-03-02T04:12:55;99763.53;;;9.66;100.00
72961;BME280;61141;46.204;19.774;2024-03-02T04:15:58;99762.75;;;9.66;100.00
72961;BME280;61141;46.204;19.774;2024-03-02T04:19:00;99756.44;;;9.62;100.00
72961;BME280;61141;46.204;19.774;2024-03-02T04:22:04;99760.38;;;9.61;100.00
72961;BME280;61141;46.204;19.774;2024-03-02T04:25:19;99765.84;;;9.64;100.00
72961;BME280;61141;46.204;19.774;2024-03-02T04:28:22;99770.88;;;9.59;100.00
72961;BME280;61141;46.204;19.774;2024-03-02T04:31:25;99762.72;;;9.62;100.00
72961;BME280;61141;46.204;19.774;2024-03-02T04:34:28;99781.09;;;9.65;100.00
72961;BME280;61141;46.204;19.774;2024-03-02T04:37:34;99776.41;;;9.66;100.00
72961;BME280;61141;46.204;19.774;2024-03-02T04:40:37;99768.19;;;9.62;100.00
72961;BME280;61141;46.204;19.774;2024-03-02T04:43:39;99771.59;;;9.52;100.00
72961;BME280;61141;46.204;19.774;2024-03-02T04:46:43;99766.59;;;9.58;100.00
72961;BME280;61141;46.204;19.774;2024-03-02T04:49:45;99768.44;;;9.47;100.00
72961;BME280;61141;46.204;19.774;2024-03-02T04:52:49;99771.59;;;9.52;100.00
72961;BME280;61141;46.204;19.774;2024-03-02T04:55:51;99778.22;;;9.51;100.00
72961;BME280;61141;46.204;19.774;2024-03-02T04:59:30;99783.78;;;9.58;100.00
72961;BME280;61141;46.204;19.774;2024-03-02T05:02:33;99759.03;;;9.48;100.00
72961;BME280;61141;46.204;19.774;2024-03-02T05:05:36;99778.72;;;9.60;100.00
72961;BME280;61141;46.204;19.774;2024-03-02T05:08:39;99779.91;;;9.63;100.00
72961;BME280;61141;46.204;19.774;2024-03-02T05:11:42;99780.25;;;9.58;100.00
72961;BME280;61141;46.204;19.774;2024-03-02T05:14:45;99783.38;;;9.60;100.00
72961;BME280;61141;46.204;19.774;2024-03-02T05:17:48;99785.69;;;9.54;100.00
72961;BME280;61141;46.204;19.774;2024-03-02T05:20:51;99773.06;;;9.42;100.00
72961;BME280;61141;46.204;19.774;2024-03-02T05:23:54;99786.72;;;9.42;100.00
72961;BME280;61141;46.204;19.774;2024-03-02T05:26:57;99790.25;;;9.43;100.00
72961;BME280;61141;46.204;19.774;2024-03-02T05:30:00;99765.91;;;9.31;100.00
72961;BME280;61141;46.204;19.774;2024-03-02T05:33:03;99787.47;;;9.36;100.00
72961;BME280;61141;46.204;19.774;2024-03-02T05:36:06;99807.03;;;9.41;100.00
72961;BME280;61141;46.204;19.774;2024-03-02T05:39:09;99795.59;;;9.32;100.00
72961;BME280;61141;46.204;19.774;2024-03-02T05:42:13;99803.91;;;9.43;100.00
72961;BME280;61141;46.204;19.774;2024-03-02T05:45:16;99806.25;;;9.44;100.00
72961;BME280;61141;46.204;19.774;2024-03-02T05:48:19;99811.72;;;9.41;100.00
72961;BME280;61141;46.204;19.774;2024-03-02T05:51:22;99808.53;;;9.35;100.00
72961;BME280;61141;46.204;19.774;2024-03-02T05:54:25;99810.13;;;9.40;100.00
72961;BME280;61141;46.204;19.774;2024-03-02T05:57:28;99812.50;;;9.41;100.00
72961;BME280;61141;46.204;19.774;2024-03-02T06:00:52;99827.66;;;9.35;100.00
72961;BME280;61141;46.204;19.774;2024-03-02T06:03:57;99831.25;;;9.43;100.00
72961;BME280;61141;46.204;19.774;2024-03-02T06:07:01;99830.50;;;9.46;100.00
72961;BME280;61141;46.204;19.774;2024-03-02T06:10:04;99824.63;;;9.44;100.00
72961;BME280;61141;46.204;19.774;2024-03-02T06:13:13;99823.50;;;9.49;100.00
72961;BME280;61141;46.204;19.774;2024-03-02T06:16:16;99832.50;;;9.49;100.00
72961;BME280;61141;46.204;19.774;2024-03-02T06:19:19;99830.25;;;9.58;100.00
72961;BME280;61141;46.204;19.774;2024-03-02T06:22:23;99822.00;;;9.55;100.00
72961;BME280;61141;46.204;19.774;2024-03-02T06:25:27;99822.06;;;9.58;100.00
72961;BME280;61141;46.204;19.774;2024-03-02T06:28:30;99822.59;;;9.74;100.00
72961;BME280;61141;46.204;19.774;2024-03-02T06:31:33;99828.16;;;10.25;100.00
72961;BME280;61141;46.204;19.774;2024-03-02T06:34:36;99817.56;;;10.20;100.00
72961;BME280;61141;46.204;19.774;2024-03-02T06:37:39;99827.03;;;10.30;100.00
72961;BME280;61141;46.204;19.774;2024-03-02T06:40:44;99823.41;;;10.19;100.00
72961;BME280;61141;46.204;19.774;2024-03-02T06:43:47;99833.03;;;10.05;100.00
72961;BME280;61141;46.204;19.774;2024-03-02T06:46:50;99832.28;;;10.09;100.00
72961;BME280;61141;46.204;19.774;2024-03-02T06:49:53;99829.41;;;10.35;100.00
72961;BME280;61141;46.204;19.774;2024-03-02T06:52:56;99829.00;;;10.36;100.00
72961;BME280;61141;46.204;19.774;2024-03-02T06:55:59;99834.66;;;10.61;100.00
72961;BME280;61141;46.204;19.774;2024-03-02T06:59:02;99843.47;;;10.95;100.00
72961;BME280;61141;46.204;19.774;2024-03-02T07:02:05;99847.06;;;11.09;100.00
72961;BME280;61141;46.204;19.774;2024-03-02T07:05:08;99854.03;;;10.96;100.00
72961;BME280;61141;46.204;19.774;2024-03-02T07:08:11;99844.28;;;11.02;100.00
72961;BME280;61141;46.204;19.774;2024-03-02T07:11:14;99852.78;;;10.80;100.00
72961;BME280;61141;46.204;19.774;2024-03-02T07:14:17;99858.16;;;10.62;100.00
72961;BME280;61141;46.204;19.774;2024-03-02T07:17:20;99854.09;;;11.10;100.00
72961;BME280;61141;46.204;19.774;2024-03-02T07:20:22;99866.50;;;10.83;100.00
72961;BME280;61141;46.204;19.774;2024-03-02T07:23:25;99864.84;;;10.68;100.00
72961;BME280;61141;46.204;19.774;2024-03-02T07:26:30;99860.16;;;10.69;100.00
72961;BME280;61141;46.204;19.774;2024-03-02T07:29:37;99856.22;;;10.66;100.00
72961;BME280;61141;46.204;19.774;2024-03-02T07:32:39;99860.50;;;10.60;100.00
72961;BME280;61141;46.204;19.774;2024-03-02T07:35:44;99864.28;;;10.45;100.00
72961;BME280;61141;46.204;19.774;2024-03-02T07:38:46;99863.56;;;10.55;100.00
72961;BME280;61141;46.204;19.774;2024-03-02T07:41:53;99862.28;;;10.42;100.00
72961;BME280;61141;46.204;19.774;2024-03-02T07:44:55;99867.38;;;10.40;100.00
72961;BME280;61141;46.204;19.774;2024-03-02T07:47:59;99865.34;;;10.30;100.00
72961;BME280;61141;46.204;19.774;2024-03-02T07:51:01;99881.47;;;10.42;100.00
72961;BME280;61141;46.204;19.774;2024-03-02T07:54:05;99883.03;;;10.43;100.00
72961;BME280;61141;46.204;19.774;2024-03-02T07:57:08;99881.28;;;10.68;100.00
72961;BME280;61141;46.204;19.774;2024-03-02T08:00:11;99886.19;;;11.03;100.00
72961;BME280;61141;46.204;19.774;2024-03-02T08:03:14;99888.53;;;11.01;100.00
72961;BME280;61141;46.204;19.774;2024-03-02T08:06:17;99889.25;;;10.94;100.00
72961;BME280;61141;46.204;19.774;2024-03-02T08:09:20;99891.63;;;10.96;100.00
72961;BME280;61141;46.204;19.774;2024-03-02T08:12:23;99892.81;;;10.98;100.00
72961;BME280;61141;46.204;19.774;2024-03-02T08:15:26;99884.47;;;10.81;100.00
72961;BME280;61141;46.204;19.774;2024-03-02T08:18:29;99889.31;;;11.01;100.00
72961;BME280;61141;46.204;19.774;2024-03-02T08:21:32;99888.03;;;10.85;100.00
72961;BME280;61141;46.204;19.774;2024-03-02T08:24:37;99883.06;;;11.01;100.00
72961;BME280;61141;46.204;19.774;2024-03-02T08:27:40;99886.47;;;10.84;100.00
72961;BME280;61141;46.204;19.774;2024-03-02T08:30:43;99899.72;;;10.78;100.00
72961;BME280;61141;46.204;19.774;2024-03-02T08:33:46;99896.19;;;10.74;100.00
72961;BME280;61141;46.204;19.774;2024-03-02T08:36:49;99894.16;;;10.64;100.00
72961;BME280;61141;46.204;19.774;2024-03-02T08:39:52;99894.47;;;10.55;100.00
72961;BME280;61141;46.204;19.774;2024-03-02T08:42:55;99901.91;;;10.51;100.00
72961;BME280;61141;46.204;19.774;2024-03-02T08:45:58;99893.69;;;10.51;100.00
72961;BME280;61141;46.204;19.774;2024-03-02T08:49:00;99896.78;;;10.46;100.00
72961;BME280;61141;46.204;19.774;2024-03-02T08:52:04;99899.69;;;10.71;100.00
72961;BME280;61141;46.204;19.774;2024-03-02T08:55:07;99906.09;;;10.96;100.00
72961;BME280;61141;46.204;19.774;2024-03-02T08:58:10;99903.66;;;10.81;100.00
72961;BME280;61141;46.204;19.774;2024-03-02T09:01:13;99901.78;;;10.92;100.00
72961;BME280;61141;46.204;19.774;2024-03-02T09:04:16;99908.75;;;10.79;100.00
72961;BME280;61141;46.204;19.774;2024-03-02T09:07:19;99899.31;;;10.73;100.00
72961;BME280;61141;46.204;19.774;2024-03-02T09:10:22;99908.31;;;10.73;100.00
72961;BME280;61141;46.204;19.774;2024-03-02T09:13:29;99895.69;;;10.61;100.00
72961;BME280;61141;46.204;19.774;2024-03-02T09:16:32;99903.59;;;10.70;100.00
72961;BME280;61141;46.204;19.774;2024-03-02T09:19:39;99915.38;;;10.78;100.00
72961;BME280;61141;46.204;19.774;2024-03-02T09:22:42;99910.31;;;10.80;100.00
72961;BME280;61141;46.204;19.774;2024-03-02T09:25:45;99906.78;;;10.79;100.00
72961;BME280;61141;46.204;19.774;2024-03-02T09:28:48;99914.44;;;11.14;100.00
72961;BME280;61141;46.204;19.774;2024-03-02T09:31:50;99918.66;;;10.97;100.00
72961;BME280;61141;46.204;19.774;2024-03-02T09:34:53;99917.03;;;10.89;100.00
72961;BME280;61141;46.204;19.774;2024-03-02T09:37:58;99923.34;;;10.93;100.00
72961;BME280;61141;46.204;19.774;2024-03-02T09:41:01;99923.38;;;11.00;100.00
72961;BME280;61141;46.204;19.774;2024-03-02T09:44:05;99923.34;;;10.97;100.00
72961;BME280;61141;46.204;19.774;2024-03-02T09:47:08;99921.03;;;11.02;100.00
72961;BME280;61141;46.204;19.774;2024-03-02T09:50:11;99921.03;;;10.99;100.00
72961;BME280;61141;46.204;19.774;2024-03-02T09:53:14;99923.38;;;11.00;100.00
72961;BME280;61141;46.204;19.774;2024-03-02T09:56:17;99925.37;;;11.07;100.00
72961;BME280;61141;46.204;19.774;2024-03-02T09:59:23;99918.75;;;11.11;100.00
72961;BME280;61141;46.204;19.774;2024-03-02T10:02:25;99919.22;;;11.28;100.00
72961;BME280;61141;46.204;19.774;2024-03-02T10:05:28;99919.59;;;11.30;100.00
72961;BME280;61141;46.204;19.774;2024-03-02T10:08:43;99922.00;;;11.35;100.00
72961;BME280;61141;46.204;19.774;2024-03-02T10:11:51;99924.31;;;11.33;100.00
72961;BME280;61141;46.204;19.774;2024-03-02T10:15:03;99921.25;;;11.45;100.00
72961;BME280;61141;46.204;19.774;2024-03-02T10:18:11;99925.13;;;11.37;100.00
72961;BME280;61141;46.204;19.774;2024-03-02T10:21:14;99916.59;;;11.56;100.00
72961;BME280;61141;46.204;19.774;2024-03-02T10:24:18;99917.81;;;11.62;100.00
72961;BME280;61141;46.204;19.774;2024-03-02T10:27:27;99907.31;;;11.82;100.00
72961;BME280;61141;46.204;19.774;2024-03-02T10:30:30;99912.06;;;11.95;100.00
72961;BME280;61141;46.204;19.774;2024-03-02T10:33:33;99911.31;;;12.19;100.00
72961;BME280;61141;46.204;19.774;2024-03-02T10:36:37;99909.75;;;12.32;100.00
72961;BME280;61141;46.204;19.774;2024-03-02T10:39:42;99908.19;;;12.35;100.00
72961;BME280;61141;46.204;19.774;2024-03-02T10:42:46;99907.41;;;12.63;100.00
72961;BME280;61141;46.204;19.774;2024-03-02T10:45:49;99902.28;;;12.82;100.00
72961;BME280;61141;46.204;19.774;2024-03-02T10:48:53;99911.69;;;13.10;100.00
72961;BME280;61141;46.204;19.774;2024-03-02T10:51:57;99905.34;;;13.30;100.00
72961;BME280;61141;46.204;19.774;2024-03-02T10:55:00;99897.81;;;13.48;98.69
72961;BME280;61141;46.204;19.774;2024-03-02T10:58:04;99881.28;;;13.56;99.12
72961;BME280;61141;46.204;19.774;2024-03-02T11:01:11;99898.41;;;13.81;99.03
72961;BME280;61141;46.204;19.774;2024-03-02T11:04:18;99889.72;;;13.93;96.62
72961;BME280;61141;46.204;19.774;2024-03-02T11:07:22;99874.34;;;13.92;95.91
72961;BME280;61141;46.204;19.774;2024-03-02T11:10:27;99893.59;;;14.02;94.34
72961;BME280;61141;46.204;19.774;2024-03-02T11:13:33;99898.25;;;14.12;95.32
72961;BME280;61141;46.204;19.774;2024-03-02T11:16:40;99895.66;;;13.84;95.71
72961;BME280;61141;46.204;19.774;2024-03-02T11:19:44;99898.31;;;13.98;95.90
72961;BME280;61141;46.204;19.774;2024-03-02T11:22:47;99892.22;;;13.66;97.21
72961;BME280;61141;46.204;19.774;2024-03-02T11:25:50;99896.50;;;13.74;95.77
72961;BME280;61141;46.204;19.774;2024-03-02T11:28:53;99895.78;;;13.67;98.11
72961;BME280;61141;46.204;19.774;2024-03-02T11:31:59;99896.50;;;13.71;94.94
72961;BME280;61141;46.204;19.774;2024-03-02T11:35:06;99888.28;;;13.67;95.03
72961;BME280;61141;46.204;19.774;2024-03-02T11:38:10;99893.50;;;13.47;96.67
72961;BME280;61141;46.204;19.774;2024-03-02T11:41:13;99888.31;;;13.57;97.25
72961;BME280;61141;46.204;19.774;2024-03-02T11:44:17;99899.31;;;13.64;96.17
72961;BME280;61141;46.204;19.774;2024-03-02T11:47:20;99898.53;;;13.56;96.19
72961;BME280;61141;46.204;19.774;2024-03-02T11:50:47;99889.72;;;13.89;96.14
72961;BME280;61141;46.204;19.774;2024-03-02T11:53:54;99893.09;;;13.49;97.03
72961;BME280;61141;46.204;19.774;2024-03-02T11:56:58;99886.00;;;13.55;97.52
72961;BME280;61141;46.204;19.774;2024-03-02T12:00:02;99895.03;;;13.48;97.57
72961;BME280;61141;46.204;19.774;2024-03-02T12:03:07;99891.94;;;13.39;96.62
72961;BME280;61141;46.204;19.774;2024-03-02T12:06:11;99899.81;;;13.37;97.22
72961;BME280;61141;46.204;19.774;2024-03-02T12:09:15;99890.44;;;13.24;98.76
72961;BME280;61141;46.204;19.774;2024-03-02T12:12:20;99891.16;;;13.39;97.51
72961;BME280;61141;46.204;19.774;2024-03-02T12:15:30;99895.94;;;13.21;98.08
72961;BME280;61141;46.204;19.774;2024-03-02T12:18:33;99893.94;;;13.28;98.18
72961;BME280;61141;46.204;19.774;2024-03-02T12:21:36;99898.62;;;13.42;97.95
72961;BME280;61141;46.204;19.774;2024-03-02T12:24:41;99903.69;;;13.50;97.76
72961;BME280;61141;46.204;19.774;2024-03-02T12:27:43;99903.97;;;13.70;95.37
72961;BME280;61141;46.204;19.774;2024-03-02T12:30:48;99895.34;;;13.65;95.85
72961;BME280;61141;46.204;19.774;2024-03-02T12:33:51;99892.09;;;13.91;94.60
72961;BME280;61141;46.204;19.774;2024-03-02T12:36:54;99888.84;;;14.03;93.27
72961;BME280;61141;46.204;19.774;2024-03-02T12:39:57;99888.47;;;14.01;94.08
72961;BME280;61141;46.204;19.774;2024-03-02T12:43:00;99891.38;;;13.80;95.09
72961;BME280;61141;46.204;19.774;2024-03-02T12:46:03;99892.88;;;13.91;93.87
72961;BME280;61141;46.204;19.774;2024-03-02T12:49:09;99890.84;;;13.99;94.19
72961;BME280;61141;46.204;19.774;2024-03-02T12:52:14;99887.37;;;13.91;94.00
72961;BME280;61141;46.204;19.774;2024-03-02T12:55:18;99894.69;;;14.12;92.93
72961;BME280;61141;46.204;19.774;2024-03-02T12:58:22;99890.06;;;13.98;93.62
72961;BME280;61141;46.204;19.774;2024-03-02T13:01:25;99896.63;;;14.19;92.59
72961;BME280;61141;46.204;19.774;2024-03-02T13:04:28;99890.78;;;14.06;91.71
72961;BME280;61141;46.204;19.774;2024-03-02T13:07:32;99891.41;;;14.31;90.92
72961;BME280;61141;46.204;19.774;2024-03-02T13:10:36;99896.16;;;14.34;92.78
72961;BME280;61141;46.204;19.774;2024-03-02T13:13:40;99896.09;;;14.41;91.12
72961;BME280;61141;46.204;19.774;2024-03-02T13:16:44;99900.81;;;14.41;92.16
72961;BME280;61141;46.204;19.774;2024-03-02T13:19:57;99896.91;;;14.38;91.20
72961;BME280;61141;46.204;19.774;2024-03-02T13:23:00;99896.47;;;14.43;91.39
72961;BME280;61141;46.204;19.774;2024-03-02T13:26:04;99890.84;;;14.57;89.04
72961;BME280;61141;46.204;19.774;2024-03-02T13:29:07;99888.13;;;14.54;90.85
72961;BME280;61141;46.204;19.774;2024-03-02T13:32:10;99871.84;;;14.66;89.60
72961;BME280;61141;46.204;19.774;2024-03-02T13:35:13;99884.19;;;14.96;88.79
72961;BME280;61141;46.204;19.774;2024-03-02T13:38:17;99878.81;;;14.82;88.81
72961;BME280;61141;46.204;19.774;2024-03-02T13:41:20;99893.34;;;14.86;87.29
72961;BME280;61141;46.204;19.774;2024-03-02T13:44:24;99885.50;;;14.81;87.54
72961;BME280;61141;46.204;19.774;2024-03-02T13:47:27;99884.56;;;14.53;88.62
72961;BME280;61141;46.204;19.774;2024-03-02T13:50:30;99893.09;;;14.69;88.64
72961;BME280;61141;46.204;19.774;2024-03-02T13:53:34;99895.47;;;14.67;88.26
72961;BME280;61141;46.204;19.774;2024-03-02T13:56:37;99887.69;;;14.55;87.78
72961;BME280;61141;46.204;19.774;2024-03-02T13:59:42;99889.81;;;14.82;88.09
72961;BME280;61141;46.204;19.774;2024-03-02T14:02:46;99893.38;;;14.82;87.27
72961;BME280;61141;46.204;19.774;2024-03-02T14:05:49;99892.94;;;14.84;87.20
72961;BME280;61141;46.204;19.774;2024-03-02T14:08:53;99892.56;;;14.85;87.32
72961;BME280;61141;46.204;19.774;2024-03-02T14:11:56;99893.53;;;14.64;87.47
72961;BME280;61141;46.204;19.774;2024-03-02T14:14:59;99894.19;;;14.79;87.30
72961;BME280;61141;46.204;19.774;2024-03-02T14:18:05;99893.84;;;14.74;88.02
72961;BME280;61141;46.204;19.774;2024-03-02T14:21:08;99885.22;;;14.72;86.97
72961;BME280;61141;46.204;19.774;2024-03-02T14:24:11;99893.09;;;14.69;87.48
72961;BME280;61141;46.204;19.774;2024-03-02T14:27:14;99888.34;;;14.74;88.01
72961;BME280;61141;46.204;19.774;2024-03-02T14:30:34;99897.06;;;14.68;87.46
72961;BME280;61141;46.204;19.774;2024-03-02T14:33:37;99893.97;;;14.59;88.33
72961;BME280;61141;46.204;19.774;2024-03-02T14:36:40;99886.59;;;14.49;88.36
72961;BME280;61141;46.204;19.774;2024-03-02T14:39:46;99891.28;;;14.52;88.43
72961;BME280;61141;46.204;19.774;2024-03-02T14:42:48;99876.75;;;14.48;89.84
72961;BME280;61141;46.204;19.774;2024-03-02T14:45:51;99887.75;;;14.52;88.75
72961;BME280;61141;46.204;19.774;2024-03-02T14:48:54;99884.25;;;14.44;89.41
72961;BME280;61141;46.204;19.774;2024-03-02T14:51:57;99885.78;;;14.52;88.69
72961;BME280;61141;46.204;19.774;2024-03-02T14:55:00;99883.50;;;14.40;88.37
72961;BME280;61141;46.204;19.774;2024-03-02T14:58:03;99882.72;;;14.40;89.90
72961;BME280;61141;46.204;19.774;2024-03-02T15:01:06;99887.50;;;14.36;89.94
72961;BME280;61141;46.204;19.774;2024-03-02T15:04:09;99877.34;;;14.22;90.57
72961;BME280;61141;46.204;19.774;2024-03-02T15:07:12;99883.94;;;14.28;90.28
72961;BME280;61141;46.204;19.774;2024-03-02T15:10:15;99895.41;;;14.23;90.21
72961;BME280;61141;46.204;19.774;2024-03-02T15:13:18;99888.75;;;14.17;90.49
72961;BME280;61141;46.204;19.774;2024-03-02T15:16:21;99886.81;;;14.14;91.28
72961;BME280;61141;46.204;19.774;2024-03-02T15:19:24;99886.41;;;14.19;90.92
72961;BME280;61141;46.204;19.774;2024-03-02T15:22:27;99890.69;;;14.20;90.65
72961;BME280;61141;46.204;19.774;2024-03-02T15:25:30;99886.06;;;14.06;90.26
72961;BME280;61141;46.204;19.774;2024-03-02T15:28:32;99892.81;;;14.02;90.54
72961;BME280;61141;46.204;19.774;2024-03-02T15:31:35;99895.22;;;13.93;91.06
72961;BME280;61141;46.204;19.774;2024-03-02T15:34:38;99881.44;;;13.93;91.18
72961;BME280;61141;46.204;19.774;2024-03-02T15:37:41;99890.44;;;14.04;91.36
72961;BME280;61141;46.204;19.774;2024-03-02T15:40:44;99891.22;;;14.01;90.89
72961;BME280;61141;46.204;19.774;2024-03-02T15:43:47;99880.66;;;13.96;91.01
72961;BME280;61141;46.204;19.774;2024-03-02T15:46:51;99881.06;;;13.91;91.06
72961;BME280;61141;46.204;19.774;2024-03-02T15:49:54;99883.47;;;13.85;91.55
72961;BME280;61141;46.204;19.774;2024-03-02T15:52:57;99879.94;;;13.81;92.53
72961;BME280;61141;46.204;19.774;2024-03-02T15:56:05;99887.84;;;13.76;92.50
72961;BME280;61141;46.204;19.774;2024-03-02T15:59:11;99888.28;;;13.67;92.62